KCEC/CEC METAR and TAF weather

Enter ICAO airport designator
Station Type Date Time Source
KCEC METAR 2019/04/22 18:33 UTC NOAA

KCEC 221833Z AUTO 33005KT 3SM BR OVC002 10/09 A3030 RMK AO2 T01000089


Station Type Date Time Source
KCEC Decoded METAR 2019/04/22 18:33 UTC NOAA

CRESCENT CITY MC NAMARA, CA, United States (KCEC) 41-47N 124-14W
Apr 22, 2019 - 02:33 PM EDT / 2019.04.22 1833 UTC
Wind: from the NNW (330 degrees) at 6 MPH (5 KT):0
Visibility: 3 mile(s):0
Sky conditions: overcast
Weather: mist
Temperature: 50.0 F (10.0 C)
Dew Point: 48.0 F (8.9 C)
Relative Humidity: 92%
Pressure (altimeter): 30.3 in. Hg (1026 hPa)
ob: KCEC 221833Z AUTO 33005KT 3SM BR OVC002 10/09 A3030 RMK AO2 T01000089
cycle: 18

Station Type Date Time Source
KCEC TAF 2019/04/22 18:45 UTC NOAA

TAF KCEC 221741Z 2218/2318 32004KT 1 1/2SM BR OVC002
TEMPO 2218/2220 4SM BR OVC004
FM222000 33010KT 6SM HZ BKN004 BKN120
FM222200 34011G20KT P6SM SCT008 SCT120 BKN300
FM230400 34005KT P6SM SCT015 SCT080 BKN300
FM230700 14005KT 6SM BR BKN005 BKN250
FM231200 VRB03KT 4SM BR OVC003
TEMPO 2313/2316 2SM BR OVC002

Example: see airport list